Terminal Aerodrome Forecast
Issued by NWS

Current Version | Previous Version | Text Only | Print | Product List | Glossary Off
Versions: 1 2 3 4 5 6 7 8 9 10 11 12 13 14 15 16 17 18 19 20 21 22 23

000
FTUS41 KILN 160204 AAA
TAFLCK
TAF AMD
KLCK 160204Z 1602/1624 24012G20KT P6SM VCTS OVC035CB
      TEMPO 1602/1604 4SM SHRA OVC025
     FM160400 25012G20KT 3SM SHRA OVC012
     FM160700 31012G18KT 5SM -SHRA OVC015
     FM161200 33012KT P6SM VCSH OVC015
     FM161500 34012G18KT P6SM BKN018
     FM162000 34012KT P6SM SCT025=

USA.gov is the U.S. government's official web portal to all federal, state and local government web resources and services.